Time;durP1;ratioP1;P1;durP2;ratioP2;P2;SDS_P1;SDS_P2;PMS_P1;PMS_P2;Temp;Humidity;BMP_temperature;BMP_pressure;BME280_temperature;BME280_humidity;BME280_pressure;Samples;Min_cycle;Max_cycle;Signal;HPM_P1;HPM_P2
2023/05/01 00:02:12;;;;;;;4.57;3.25;;;;;;;;;;5091636;28;20024;-68
2023/05/01 00:04:38;;;;;;;4.88;3.30;;;;;;;;;;5091246;28;20466;-68
2023/05/01 00:07:03;;;;;;;4.28;3.47;;;;;;;;;;5091760;28;20031;-68
2023/05/01 00:09:31;;;;;;;4.85;3.42;;;;;;;;;;5091157;28;20032;-68
2023/05/01 00:11:56;;;;;;;3.95;3.40;;;;;;;;;;5091296;28;20499;-68
2023/05/01 00:14:22;;;;;;;3.50;3.20;;;;;;;;;;5089965;28;20093;-68
2023/05/01 00:16:47;;;;;;;4.97;3.20;;;;;;;;;;5091372;28;20534;-68
2023/05/01 00:19:17;;;;;;;6.30;3.25;;;;;;;;;;5091012;28;20024;-68
2023/05/01 00:21:47;;;;;;;6.13;3.57;;;;;;;;;;5091088;28;20028;-68
2023/05/01 00:24:13;;;;;;;6.70;3.30;;;;;;;;;;5091272;28;20055;-68
2023/05/01 00:26:39;;;;;;;3.85;3.45;;;;;;;;;;5091267;28;20028;-68
2023/05/01 00:29:05;;;;;;;4.45;3.20;;;;;;;;;;5091261;28;20051;-68
2023/05/01 00:31:30;;;;;;;4.03;3.63;;;;;;;;;;5090826;28;20043;-68
2023/05/01 00:33:56;;;;;;;4.13;3.20;;;;;;;;;;5091098;28;20036;-68
2023/05/01 00:36:22;;;;;;;6.07;3.28;;;;;;;;;;5090751;28;20052;-67
2023/05/01 00:38:47;;;;;;;4.07;2.90;;;;;;;;;;5090949;28;20635;-67
2023/05/01 00:41:13;;;;;;;5.30;3.13;;;;;;;;;;5090943;28;20050;-68
2023/05/01 00:43:38;;;;;;;4.53;3.10;;;;;;;;;;5090857;28;20024;-68
2023/05/01 00:46:05;;;;;;;4.47;3.30;;;;;;;;;;5090704;28;20055;-68
2023/05/01 00:48:30;;;;;;;4.38;3.70;;;;;;;;;;5090394;28;20036;-67
2023/05/01 00:50:57;;;;;;;5.18;3.33;;;;;;;;;;5090805;28;20039;-68
2023/05/01 00:53:25;;;;;;;6.07;3.67;;;;;;;;;;5090891;28;20028;-68
2023/05/01 00:55:50;;;;;;;8.50;3.67;;;;;;;;;;5091113;28;20028;-68
2023/05/01 00:58:17;;;;;;;6.50;3.60;;;;;;;;;;5090392;28;20537;-67
2023/05/01 01:00:43;;;;;;;6.97;3.72;;;;;;;;;;5090579;28;20523;-67
2023/05/01 01:03:10;;;;;;;10.00;3.53;;;;;;;;;;5091008;28;20036;-67
2023/05/01 01:05:42;;;;;;;5.65;3.58;;;;;;;;;;5090591;28;20028;-68
2023/05/01 01:08:28;;;;;;;4.63;3.70;;;;;;;;;;5090498;28;20021;-67
2023/05/01 01:11:13;;;;;;;6.55;3.95;;;;;;;;;;5090617;28;20024;-68
2023/05/01 01:13:45;;;;;;;4.57;3.83;;;;;;;;;;5090941;28;20378;-67
2023/05/01 01:16:53;;;;;;;5.40;3.70;;;;;;;;;;5090440;28;20039;-68
2023/05/01 01:19:19;;;;;;;7.50;3.58;;;;;;;;;;5090755;28;20028;-67
2023/05/01 01:21:47;;;;;;;3.85;3.55;;;;;;;;;;5090682;28;20051;-68
2023/05/01 01:24:46;;;;;;;5.32;3.67;;;;;;;;;;5090718;28;20110;-68
2023/05/01 01:27:35;;;;;;;4.35;3.95;;;;;;;;;;5090387;28;20039;-68
2023/05/01 01:30:22;;;;;;;5.07;3.47;;;;;;;;;;5090275;28;20024;-68
2023/05/01 01:33:25;;;;;;;3.63;3.22;;;;;;;;;;5090642;28;20620;-68
2023/05/01 01:35:57;;;;;;;4.28;3.88;;;;;;;;;;5089999;28;20043;-67
2023/05/01 01:38:39;;;;;;;4.55;3.75;;;;;;;;;;5090408;28;20044;-66
2023/05/01 01:41:13;;;;;;;5.10;3.72;;;;;;;;;;5089099;28;20036;-68
2023/05/01 01:43:46;;;;;;;6.05;3.85;;;;;;;;;;5090309;28;20028;-68
2023/05/01 01:46:15;;;;;;;4.68;3.70;;;;;;;;;;5090248;28;20585;-69
2023/05/01 01:48:45;;;;;;;6.88;4.00;;;;;;;;;;5090103;28;20103;-69
2023/05/01 01:51:17;;;;;;;5.07;3.75;;;;;;;;;;5090260;28;20028;-68
2023/05/01 01:53:49;;;;;;;6.38;3.90;;;;;;;;;;5090186;28;20043;-67
2023/05/01 01:56:17;;;;;;;4.60;3.60;;;;;;;;;;5090094;28;20028;-68
2023/05/01 01:58:44;;;;;;;4.25;3.85;;;;;;;;;;5089932;28;20081;-67
2023/05/01 02:01:12;;;;;;;6.15;3.83;;;;;;;;;;5092011;28;20085;-68
2023/05/01 02:03:39;;;;;;;6.20;3.85;;;;;;;;;;5092424;28;20115;-68
2023/05/01 02:06:06;;;;;;;4.18;3.78;;;;;;;;;;5093623;28;20380;-67
2023/05/01 02:08:34;;;;;;;4.20;3.80;;;;;;;;;;5093511;28;20040;-68
2023/05/01 02:11:00;;;;;;;6.95;4.88;;;;;;;;;;5093578;28;20541;-67
2023/05/01 02:13:28;;;;;;;7.20;3.72;;;;;;;;;;5093545;28;20494;-68
2023/05/01 02:15:57;;;;;;;6.20;4.22;;;;;;;;;;5093515;28;20040;-68
2023/05/01 02:18:25;;;;;;;7.22;4.07;;;;;;;;;;5093421;28;20032;-67
2023/05/01 02:20:51;;;;;;;5.05;3.80;;;;;;;;;;5093346;28;20448;-68
2023/05/01 02:23:17;;;;;;;7.32;4.25;;;;;;;;;;5093679;28;20035;-67
2023/05/01 02:25:44;;;;;;;4.55;4.13;;;;;;;;;;5093186;28;20028;-67
2023/05/01 02:28:13;;;;;;;6.60;4.32;;;;;;;;;;5093425;28;20024;-68
2023/05/01 02:30:39;;;;;;;6.03;4.00;;;;;;;;;;5092161;28;20444;-66
2023/05/01 02:33:07;;;;;;;5.80;4.03;;;;;;;;;;5093514;28;20056;-66
2023/05/01 02:35:42;;;;;;;5.90;4.05;;;;;;;;;;5091905;28;20027;-68
2023/05/01 02:38:12;;;;;;;5.13;4.20;;;;;;;;;;5093105;28;20472;-68
2023/05/01 02:40:39;;;;;;;10.40;4.25;;;;;;;;;;5091706;28;20054;-65
2023/05/01 02:43:09;;;;;;;6.13;4.20;;;;;;;;;;5094928;28;20036;-68
2023/05/01 02:45:38;;;;;;;4.78;4.05;;;;;;;;;;5093294;28;20023;-67
2023/05/01 02:48:05;;;;;;;6.00;4.10;;;;;;;;;;5094155;28;20073;-67
2023/05/01 02:50:32;;;;;;;6.55;4.15;;;;;;;;;;5094379;28;20425;-68
2023/05/01 02:52:58;;;;;;;6.47;3.95;;;;;;;;;;5094364;28;20523;-68
2023/05/01 02:55:25;;;;;;;8.60;4.85;;;;;;;;;;5094555;28;20411;-67
2023/05/01 02:57:51;;;;;;;5.72;4.20;;;;;;;;;;5094116;28;20028;-68
2023/05/01 03:00:17;;;;;;;8.27;4.45;;;;;;;;;;5094335;28;20025;-67
2023/05/01 03:02:43;;;;;;;4.82;4.13;;;;;;;;;;5094276;28;20028;-67
2023/05/01 03:05:09;;;;;;;11.60;4.28;;;;;;;;;;5094081;28;20383;-65
2023/05/01 03:07:35;;;;;;;8.90;4.03;;;;;;;;;;5093955;28;20103;-67
2023/05/01 03:10:04;;;;;;;6.82;4.57;;;;;;;;;;5092819;28;20035;-67
2023/05/01 03:12:30;;;;;;;5.63;4.13;;;;;;;;;;5092204;28;20032;-65
2023/05/01 03:14:56;;;;;;;8.60;4.70;;;;;;;;;;5091345;28;20024;-63
2023/05/01 03:17:21;;;;;;;4.80;3.83;;;;;;;;;;5073342;28;20032;-65
2023/05/01 03:19:48;;;;;;;9.73;4.93;;;;;;;;;;5072053;28;20499;-67
2023/05/01 03:22:14;;;;;;;7.22;3.80;;;;;;;;;;5071857;28;20032;-67
2023/05/01 03:24:39;;;;;;;4.70;3.75;;;;;;;;;;5072173;28;20028;-67
2023/05/01 03:27:06;;;;;;;4.10;3.70;;;;;;;;;;5072215;28;20115;-65
2023/05/01 03:29:41;;;;;;;7.97;4.20;;;;;;;;;;5072120;28;20036;-64
2023/05/01 03:32:07;;;;;;;5.75;3.70;;;;;;;;;;5071902;28;20063;-65
2023/05/01 03:34:33;;;;;;;6.55;3.80;;;;;;;;;;5071674;28;20028;-66
2023/05/01 03:36:58;;;;;;;3.88;3.42;;;;;;;;;;5071542;28;20048;-66
2023/05/01 03:39:24;;;;;;;7.30;3.88;;;;;;;;;;5084370;28;20020;-66
2023/05/01 03:41:49;;;;;;;4.53;3.90;;;;;;;;;;5091904;28;20055;-66
2023/05/01 03:44:15;;;;;;;6.38;3.85;;;;;;;;;;5091799;28;20028;-66
2023/05/01 03:46:40;;;;;;;4.20;3.50;;;;;;;;;;5091756;28;20071;-66
2023/05/01 03:49:06;;;;;;;4.68;3.28;;;;;;;;;;5090382;28;20035;-63
2023/05/01 03:51:32;;;;;;;3.97;3.40;;;;;;;;;;5087409;28;20024;-65
2023/05/01 03:53:58;;;;;;;3.53;3.15;;;;;;;;;;5085905;28;20033;-65
2023/05/01 03:56:24;;;;;;;3.85;3.40;;;;;;;;;;5087744;28;20517;-64
2023/05/01 03:58:51;;;;;;;3.85;3.30;;;;;;;;;;5091143;28;20038;-64
2023/05/01 04:01:17;;;;;;;4.10;3.40;;;;;;;;;;5089470;28;20054;-66
2023/05/01 04:03:43;;;;;;;4.13;3.55;;;;;;;;;;5092682;28;20020;-65
2023/05/01 04:06:09;;;;;;;6.93;3.53;;;;;;;;;;5091893;28;20020;-65
2023/05/01 04:08:34;;;;;;;4.65;3.28;;;;;;;;;;5092741;28;20031;-65
2023/05/01 04:11:00;;;;;;;3.70;3.40;;;;;;;;;;5092821;28;20032;-64
2023/05/01 04:13:26;;;;;;;5.03;3.33;;;;;;;;;;5091929;28;20023;-63
2023/05/01 04:15:54;;;;;;;3.72;3.28;;;;;;;;;;5092224;28;20077;-65
2023/05/01 04:18:19;;;;;;;4.68;3.22;;;;;;;;;;5092465;28;20024;-65
2023/05/01 04:20:45;;;;;;;4.18;3.08;;;;;;;;;;5092127;28;20125;-64
2023/05/01 04:23:11;;;;;;;4.03;3.63;;;;;;;;;;5092614;28;20487;-64
2023/05/01 04:25:37;;;;;;;6.97;3.42;;;;;;;;;;5092742;28;20024;-64
2023/05/01 04:28:03;;;;;;;5.70;3.38;;;;;;;;;;5092695;28;20028;-64
2023/05/01 04:30:30;;;;;;;3.45;3.15;;;;;;;;;;5092696;28;20020;-64
2023/05/01 04:32:57;;;;;;;4.65;3.45;;;;;;;;;;5092757;28;20028;-64
2023/05/01 04:35:22;;;;;;;3.88;3.42;;;;;;;;;;5092533;28;20035;-64
2023/05/01 04:37:48;;;;;;;3.58;3.17;;;;;;;;;;5092422;28;20044;-64
2023/05/01 04:40:14;;;;;;;4.07;3.60;;;;;;;;;;5092625;28;20070;-64
2023/05/01 04:42:39;;;;;;;4.15;3.25;;;;;;;;;;5092625;28;20024;-64
2023/05/01 04:45:05;;;;;;;4.25;3.17;;;;;;;;;;5092589;28;20049;-64
2023/05/01 04:47:31;;;;;;;6.45;3.20;;;;;;;;;;5092528;28;20039;-64
2023/05/01 04:49:56;;;;;;;4.38;3.22;;;;;;;;;;5092722;28;20024;-64
2023/05/01 04:52:22;;;;;;;5.28;3.17;;;;;;;;;;5092746;28;20464;-64
2023/05/01 04:54:48;;;;;;;4.53;3.10;;;;;;;;;;5092394;28;20048;-64
2023/05/01 04:57:13;;;;;;;4.97;2.97;;;;;;;;;;5092665;28;20040;-64
2023/05/01 04:59:39;;;;;;;3.42;3.13;;;;;;;;;;5092404;28;20479;-64
2023/05/01 05:02:05;;;;;;;5.63;3.50;;;;;;;;;;5092409;28;20035;-64
2023/05/01 05:04:30;;;;;;;3.72;3.30;;;;;;;;;;5092316;28;20020;-64
2023/05/01 05:06:56;;;;;;;3.40;3.10;;;;;;;;;;5092330;28;20115;-64
2023/05/01 05:09:21;;;;;;;5.13;2.88;;;;;;;;;;5092563;28;20119;-64
2023/05/01 05:11:47;;;;;;;5.05;3.00;;;;;;;;;;5092574;28;20490;-64
2023/05/01 05:14:12;;;;;;;3.20;2.90;;;;;;;;;;5092241;28;20052;-64
2023/05/01 05:16:38;;;;;;;5.65;3.40;;;;;;;;;;5092555;28;20082;-64
2023/05/01 05:19:03;;;;;;;4.65;3.13;;;;;;;;;;5092306;28;20415;-64
2023/05/01 05:21:30;;;;;;;4.18;3.40;;;;;;;;;;5092480;28;20490;-64
2023/05/01 05:23:56;;;;;;;3.83;3.03;;;;;;;;;;5092468;28;20032;-64
2023/05/01 05:26:22;;;;;;;5.68;3.00;;;;;;;;;;5092208;28;20730;-64
2023/05/01 05:28:49;;;;;;;4.95;3.10;;;;;;;;;;5092413;28;20028;-64
2023/05/01 05:31:14;;;;;;;3.22;2.92;;;;;;;;;;5092110;28;20597;-64
2023/05/01 05:33:40;;;;;;;3.58;3.00;;;;;;;;;;5092201;28;20028;-64
2023/05/01 05:36:06;;;;;;;4.50;3.10;;;;;;;;;;5093555;28;20040;-64
2023/05/01 05:38:31;;;;;;;3.00;2.70;;;;;;;;;;5096184;28;20127;-65
2023/05/01 05:40:58;;;;;;;4.40;2.88;;;;;;;;;;5095972;28;20411;-65
2023/05/01 05:43:23;;;;;;;3.42;3.00;;;;;;;;;;5095764;28;20028;-65
2023/05/01 05:45:49;;;;;;;3.88;3.10;;;;;;;;;;5096096;28;20032;-64
2023/05/01 05:48:15;;;;;;;5.90;3.20;;;;;;;;;;5095629;28;20035;-64
2023/05/01 05:50:41;;;;;;;3.10;2.58;;;;;;;;;;5095792;28;20027;-64
2023/05/01 05:53:07;;;;;;;5.03;3.00;;;;;;;;;;5095579;28;20031;-65
2023/05/01 05:55:33;;;;;;;5.90;3.17;;;;;;;;;;5095817;28;20085;-64
2023/05/01 05:57:58;;;;;;;5.53;3.25;;;;;;;;;;5095748;28;20467;-64
2023/05/01 06:00:24;;;;;;;3.13;2.83;;;;;;;;;;5095734;28;20471;-65
2023/05/01 06:02:50;;;;;;;4.78;2.92;;;;;;;;;;5095711;28;20367;-65
2023/05/01 06:05:15;;;;;;;3.13;2.83;;;;;;;;;;5095340;28;20020;-64
2023/05/01 06:07:42;;;;;;;3.35;3.05;;;;;;;;;;5095287;28;20036;-64
2023/05/01 06:10:08;;;;;;;5.57;3.20;;;;;;;;;;5095313;28;20035;-64
2023/05/01 06:12:34;;;;;;;4.10;2.90;;;;;;;;;;5095587;28;20063;-65
2023/05/01 06:14:59;;;;;;;3.00;2.70;;;;;;;;;;5095312;28;20507;-64
2023/05/01 06:17:25;;;;;;;4.20;2.80;;;;;;;;;;5095318;28;20020;-64
2023/05/01 06:19:52;;;;;;;3.47;3.10;;;;;;;;;;5095152;28;20047;-64
2023/05/01 06:22:18;;;;;;;5.30;3.50;;;;;;;;;;5095396;28;20429;-65
2023/05/01 06:24:44;;;;;;;3.00;2.75;;;;;;;;;;5095022;28;20031;-64
2023/05/01 06:27:10;;;;;;;4.47;3.10;;;;;;;;;;5095406;28;20024;-65
2023/05/01 06:29:36;;;;;;;2.72;2.53;;;;;;;;;;5093724;28;20082;-65
2023/05/01 06:32:01;;;;;;;3.70;3.00;;;;;;;;;;5095167;28;20418;-65
2023/05/01 06:34:27;;;;;;;3.92;3.17;;;;;;;;;;5094852;28;20051;-64
2023/05/01 06:36:53;;;;;;;4.75;3.28;;;;;;;;;;5094564;28;20488;-65
2023/05/01 06:39:18;;;;;;;4.32;3.03;;;;;;;;;;5094564;28;20031;-65
2023/05/01 06:41:47;;;;;;;6.80;2.92;;;;;;;;;;5094505;28;20077;-64
2023/05/01 06:44:15;;;;;;;3.63;2.70;;;;;;;;;;5094442;28;20020;-64
2023/05/01 06:46:40;;;;;;;6.75;3.00;;;;;;;;;;5094025;28;20488;-65
2023/05/01 06:49:06;;;;;;;3.30;3.00;;;;;;;;;;5094456;28;20057;-64
2023/05/01 06:51:32;;;;;;;3.20;2.72;;;;;;;;;;5094450;28;20070;-64
2023/05/01 06:53:57;;;;;;;3.20;2.90;;;;;;;;;;5094793;28;20020;-64
2023/05/01 06:56:23;;;;;;;3.60;3.13;;;;;;;;;;5094389;28;20024;-65
2023/05/01 06:58:49;;;;;;;3.75;2.88;;;;;;;;;;5094334;28;20494;-65
2023/05/01 07:01:15;;;;;;;3.72;3.00;;;;;;;;;;5094542;28;20028;-65
2023/05/01 07:03:41;;;;;;;3.70;3.10;;;;;;;;;;5093199;28;20090;-64
2023/05/01 07:06:06;;;;;;;3.78;2.60;;;;;;;;;;5093252;28;20032;-65
2023/05/01 07:08:32;;;;;;;3.05;2.70;;;;;;;;;;5093856;28;20032;-64
2023/05/01 07:10:57;;;;;;;3.17;2.90;;;;;;;;;;5094260;28;20029;-65
2023/05/01 07:13:24;;;;;;;3.80;2.72;;;;;;;;;;5094164;28;20035;-65
2023/05/01 07:15:49;;;;;;;3.10;2.90;;;;;;;;;;5093407;28;20032;-65
2023/05/01 07:18:16;;;;;;;3.38;2.58;;;;;;;;;;5092168;28;20030;-64
2023/05/01 07:20:41;;;;;;;3.80;2.80;;;;;;;;;;5093844;28;20389;-64
2023/05/01 07:23:08;;;;;;;3.15;2.85;;;;;;;;;;5093862;28;20024;-64
2023/05/01 07:25:36;;;;;;;3.10;2.75;;;;;;;;;;5094119;28;20028;-64
2023/05/01 07:28:04;;;;;;;3.28;2.80;;;;;;;;;;5094112;28;20032;-65
2023/05/01 07:30:29;;;;;;;3.83;2.75;;;;;;;;;;5093996;28;20027;-65
2023/05/01 07:32:56;;;;;;;3.15;2.65;;;;;;;;;;5093794;28;20061;-65
2023/05/01 07:35:22;;;;;;;3.17;2.80;;;;;;;;;;5093754;28;20549;-65
2023/05/01 07:37:51;;;;;;;3.38;2.80;;;;;;;;;;5093377;28;20079;-64
2023/05/01 07:40:17;;;;;;;3.10;2.80;;;;;;;;;;5092324;28;20066;-65
2023/05/01 07:42:43;;;;;;;3.70;2.90;;;;;;;;;;5093516;28;20535;-65
2023/05/01 07:45:09;;;;;;;4.47;2.83;;;;;;;;;;5093733;28;20104;-66
2023/05/01 07:47:35;;;;;;;3.90;2.88;;;;;;;;;;5093673;28;20372;-64
2023/05/01 07:50:01;;;;;;;3.22;2.88;;;;;;;;;;5092080;28;20012;-63
2023/05/01 07:52:27;;;;;;;3.83;3.00;;;;;;;;;;5091798;28;20024;-64
2023/05/01 07:54:53;;;;;;;3.00;2.70;;;;;;;;;;5093056;28;20370;-65
2023/05/01 07:57:19;;;;;;;2.58;2.38;;;;;;;;;;5093108;28;20036;-65
2023/05/01 07:59:44;;;;;;;2.85;2.60;;;;;;;;;;5092294;28;20027;-65
2023/05/01 08:02:12;;;;;;;2.90;2.38;;;;;;;;;;5093382;28;20020;-63
2023/05/01 08:04:38;;;;;;;3.97;2.97;;;;;;;;;;5093057;28;20028;-65
2023/05/01 08:07:04;;;;;;;2.92;2.60;;;;;;;;;;5092873;28;20655;-64
2023/05/01 08:09:29;;;;;;;4.00;2.80;;;;;;;;;;5092928;28;20122;-64
2023/05/01 08:11:55;;;;;;;4.00;2.80;;;;;;;;;;5092943;28;20028;-65
2023/05/01 08:14:21;;;;;;;2.70;2.50;;;;;;;;;;5093304;28;20526;-65
2023/05/01 08:16:53;;;;;;;3.28;2.60;;;;;;;;;;5092905;28;20498;-65
2023/05/01 08:19:18;;;;;;;2.95;2.47;;;;;;;;;;5092991;28;20426;-65
2023/05/01 08:21:44;;;;;;;2.58;2.38;;;;;;;;;;5092926;28;20033;-65
2023/05/01 08:24:09;;;;;;;3.25;2.78;;;;;;;;;;5092892;28;20480;-65
2023/05/01 08:26:35;;;;;;;3.50;2.60;;;;;;;;;;5092771;28;20020;-65
2023/05/01 08:29:01;;;;;;;6.03;2.88;;;;;;;;;;5093139;28;20055;-65
2023/05/01 08:31:26;;;;;;;2.90;2.60;;;;;;;;;;5092699;28;20107;-65
2023/05/01 08:33:52;;;;;;;3.15;2.58;;;;;;;;;;5092775;28;20437;-64
2023/05/01 08:36:17;;;;;;;2.50;2.30;;;;;;;;;;5092462;28;20068;-65
2023/05/01 08:38:44;;;;;;;2.75;2.45;;;;;;;;;;5092620;28;20024;-66
2023/05/01 08:41:15;;;;;;;3.53;2.42;;;;;;;;;;5092561;28;20028;-64
2023/05/01 08:43:42;;;;;;;3.67;2.58;;;;;;;;;;5092575;28;20043;-65
2023/05/01 08:46:08;;;;;;;2.65;2.40;;;;;;;;;;5092604;28;20028;-65
2023/05/01 08:48:35;;;;;;;3.28;2.60;;;;;;;;;;5092839;28;20024;-66
2023/05/01 08:51:02;;;;;;;2.67;2.47;;;;;;;;;;5092752;28;20345;-66
2023/05/01 08:53:30;;;;;;;2.53;2.25;;;;;;;;;;5092562;28;20017;-66
2023/05/01 08:55:57;;;;;;;2.75;2.50;;;;;;;;;;5092429;28;20050;-65
2023/05/01 08:58:24;;;;;;;2.90;2.63;;;;;;;;;;5092706;28;20077;-65
2023/05/01 09:00:50;;;;;;;3.03;2.60;;;;;;;;;;5092414;28;20028;-65
2023/05/01 09:03:16;;;;;;;2.80;2.50;;;;;;;;;;5092450;28;20028;-65
2023/05/01 09:05:42;;;;;;;2.50;2.30;;;;;;;;;;5092314;28;20060;-65
2023/05/01 09:08:08;;;;;;;3.30;2.63;;;;;;;;;;5092476;28;20062;-65
2023/05/01 09:10:40;;;;;;;3.75;2.53;;;;;;;;;;5094826;28;20103;-65
2023/05/01 09:13:07;;;;;;;2.85;2.65;;;;;;;;;;5096578;28;20097;-65
2023/05/01 09:15:33;;;;;;;2.47;2.28;;;;;;;;;;5096690;28;20052;-65
2023/05/01 09:18:00;;;;;;;4.40;2.30;;;;;;;;;;5096635;28;20078;-65
2023/05/01 09:20:26;;;;;;;4.28;2.60;;;;;;;;;;5096597;28;20453;-65
2023/05/01 09:22:51;;;;;;;2.70;2.50;;;;;;;;;;5096319;28;20032;-65
2023/05/01 09:25:18;;;;;;;2.70;2.50;;;;;;;;;;5095036;28;20025;-65
2023/05/01 09:27:44;;;;;;;2.65;2.42;;;;;;;;;;5096456;28;20039;-66
2023/05/01 09:30:31;;;;;;;2.88;2.47;;;;;;;;;;5096080;28;20016;-66
2023/05/01 09:33:13;;;;;;;3.65;2.63;;;;;;;;;;5096142;28;20031;-65
2023/05/01 09:35:49;;;;;;;3.75;2.63;;;;;;;;;;5095869;28;20024;-65
2023/05/01 09:38:22;;;;;;;2.80;2.60;;;;;;;;;;5095917;28;20111;-65
2023/05/01 09:40:48;;;;;;;2.65;2.45;;;;;;;;;;5095962;28;20084;-65
2023/05/01 09:43:24;;;;;;;3.47;2.45;;;;;;;;;;5095934;28;20032;-66
2023/05/01 09:46:04;;;;;;;3.33;2.60;;;;;;;;;;5095960;28;20028;-65
2023/05/01 09:48:30;;;;;;;3.13;2.60;;;;;;;;;;5096156;28;20068;-66
2023/05/01 09:50:55;;;;;;;2.85;2.45;;;;;;;;;;5095867;28;20028;-66
2023/05/01 09:53:36;;;;;;;2.63;2.42;;;;;;;;;;5095698;28;20047;-66
2023/05/01 09:56:02;;;;;;;4.80;2.60;;;;;;;;;;5095710;28;20032;-65
2023/05/01 09:58:28;;;;;;;2.70;2.50;;;;;;;;;;5095618;28;20043;-65
2023/05/01 10:00:53;;;;;;;3.88;2.67;;;;;;;;;;5095774;28;20032;-66
2023/05/01 10:03:19;;;;;;;3.08;2.58;;;;;;;;;;5095728;28;20027;-65
2023/05/01 10:05:45;;;;;;;2.80;2.22;;;;;;;;;;5095509;28;20357;-65
2023/05/01 10:08:13;;;;;;;2.67;2.30;;;;;;;;;;5095394;28;20035;-66
2023/05/01 10:10:40;;;;;;;2.72;2.50;;;;;;;;;;5095719;28;20113;-65
2023/05/01 10:13:16;;;;;;;2.97;2.35;;;;;;;;;;5095557;28;20474;-65
2023/05/01 10:15:47;;;;;;;2.58;2.38;;;;;;;;;;5095304;28;20035;-66
2023/05/01 10:18:13;;;;;;;2.60;2.38;;;;;;;;;;5095141;28;20024;-65
2023/05/01 10:20:39;;;;;;;2.60;2.40;;;;;;;;;;5095277;28;20119;-66
2023/05/01 10:23:05;;;;;;;2.30;2.10;;;;;;;;;;5094470;28;20103;-66
2023/05/01 10:25:31;;;;;;;2.33;2.13;;;;;;;;;;5095082;28;20024;-66
2023/05/01 10:27:57;;;;;;;4.32;2.30;;;;;;;;;;5094966;28;20040;-66
2023/05/01 10:30:25;;;;;;;2.45;2.25;;;;;;;;;;5094961;28;20030;-66
2023/05/01 10:32:51;;;;;;;2.58;2.38;;;;;;;;;;5095194;28;20384;-66
2023/05/01 10:35:32;;;;;;;2.60;2.40;;;;;;;;;;5095196;28;20027;-65
2023/05/01 10:38:03;;;;;;;2.20;2.10;;;;;;;;;;5094740;28;20504;-65
2023/05/01 10:40:38;;;;;;;2.40;2.20;;;;;;;;;;5094825;28;20472;-66
2023/05/01 10:43:16;;;;;;;2.83;2.28;;;;;;;;;;5095044;28;20107;-66
2023/05/01 10:45:46;;;;;;;2.67;2.42;;;;;;;;;;5094961;28;20031;-65
2023/05/01 10:48:32;;;;;;;2.30;2.20;;;;;;;;;;5094689;28;20028;-66
2023/05/01 10:51:16;;;;;;;4.13;2.60;;;;;;;;;;5094550;28;20020;-66
2023/05/01 10:53:47;;;;;;;2.67;2.47;;;;;;;;;;5094414;28;20016;-65
2023/05/01 10:56:25;;;;;;;2.90;2.60;;;;;;;;;;5094483;28;20020;-67
2023/05/01 10:59:03;;;;;;;2.55;2.35;;;;;;;;;;5094683;28;20115;-66
2023/05/01 11:01:30;;;;;;;3.08;2.38;;;;;;;;;;5094619;28;20024;-67
2023/05/01 11:03:57;;;;;;;2.47;2.28;;;;;;;;;;5093129;28;20565;-66
2023/05/01 11:06:24;;;;;;;2.17;2.08;;;;;;;;;;5094321;28;20047;-65
2023/05/01 11:08:50;;;;;;;2.70;2.20;;;;;;;;;;5094129;28;20447;-65
2023/05/01 11:11:24;;;;;;;4.63;2.65;;;;;;;;;;5094448;28;20020;-66
2023/05/01 11:14:05;;;;;;;2.38;2.17;;;;;;;;;;5094159;28;20028;-66
2023/05/01 11:16:36;;;;;;;3.25;2.47;;;;;;;;;;5094093;28;20422;-66
2023/05/01 11:19:06;;;;;;;2.78;2.38;;;;;;;;;;5094179;28;20102;-65
2023/05/01 11:21:33;;;;;;;2.72;2.30;;;;;;;;;;5094544;28;20024;-65
2023/05/01 11:24:02;;;;;;;2.45;2.25;;;;;;;;;;5093932;28;20098;-66
2023/05/01 11:26:29;;;;;;;4.93;2.20;;;;;;;;;;5094163;28;20031;-67
2023/05/01 11:28:57;;;;;;;2.40;2.20;;;;;;;;;;5094162;28;20035;-66
2023/05/01 11:31:25;;;;;;;2.33;2.10;;;;;;;;;;5093721;28;20050;-67
2023/05/01 11:33:51;;;;;;;2.42;2.22;;;;;;;;;;5093688;28;20031;-67
2023/05/01 11:36:18;;;;;;;4.05;2.10;;;;;;;;;;5093637;28;20072;-67
2023/05/01 11:38:51;;;;;;;2.17;2.08;;;;;;;;;;5093553;28;20028;-65
2023/05/01 11:41:20;;;;;;;4.03;2.20;;;;;;;;;;5093597;28;20031;-66
2023/05/01 11:43:49;;;;;;;3.35;2.30;;;;;;;;;;5093629;28;20077;-66
2023/05/01 11:46:28;;;;;;;5.53;2.25;;;;;;;;;;5093818;28;20035;-68
2023/05/01 11:49:01;;;;;;;2.22;2.00;;;;;;;;;;5093556;28;20048;-68
2023/05/01 11:51:27;;;;;;;4.18;2.10;;;;;;;;;;5093385;28;20036;-68
2023/05/01 11:54:11;;;;;;;3.33;2.13;;;;;;;;;;5093138;28;20387;-68
2023/05/01 11:56:39;;;;;;;2.40;2.17;;;;;;;;;;5090004;28;20035;-66
2023/05/01 11:59:14;;;;;;;4.05;1.90;;;;;;;;;;5093274;28;20031;-68
2023/05/01 12:01:43;;;;;;;2.10;1.88;;;;;;;;;;5090711;28;20024;-66
2023/05/01 12:04:08;;;;;;;2.35;2.15;;;;;;;;;;5088451;28;20028;-68
2023/05/01 12:06:44;;;;;;;3.17;2.10;;;;;;;;;;5089542;28;20024;-65
2023/05/01 12:09:19;;;;;;;3.72;2.00;;;;;;;;;;5091819;28;20023;-65
2023/05/01 12:11:46;;;;;;;2.10;1.90;;;;;;;;;;5089996;28;20024;-65
2023/05/01 12:14:14;;;;;;;2.25;2.03;;;;;;;;;;5089828;28;20111;-65
2023/05/01 12:16:41;;;;;;;2.10;1.90;;;;;;;;;;5091718;28;20561;-65
2023/05/01 12:19:06;;;;;;;2.67;1.80;;;;;;;;;;5091897;28;20028;-66
2023/05/01 12:21:32;;;;;;;2.42;2.20;;;;;;;;;;5091962;28;20077;-65
2023/05/01 12:24:15;;;;;;;2.20;2.00;;;;;;;;;;5090838;28;20024;-65
2023/05/01 12:26:41;;;;;;;3.78;1.83;;;;;;;;;;5091945;28;20031;-66
2023/05/01 12:29:08;;;;;;;1.92;1.77;;;;;;;;;;5091615;28;20031;-66
2023/05/01 12:31:35;;;;;;;2.35;2.00;;;;;;;;;;5091516;28;20039;-66
2023/05/01 12:34:07;;;;;;;3.08;2.20;;;;;;;;;;5089033;28;20028;-65
2023/05/01 12:36:34;;;;;;;2.00;1.90;;;;;;;;;;5089704;28;20085;-65
2023/05/01 12:39:03;;;;;;;3.03;1.98;;;;;;;;;;5090862;28;20031;-64
2023/05/01 12:41:35;;;;;;;2.30;2.10;;;;;;;;;;5090783;28;20069;-64
2023/05/01 12:44:02;;;;;;;2.53;2.30;;;;;;;;;;5090252;28;20027;-66
2023/05/01 12:46:28;;;;;;;3.10;2.00;;;;;;;;;;5090405;28;20051;-65
2023/05/01 12:48:54;;;;;;;4.50;2.15;;;;;;;;;;5091476;28;20495;-66
2023/05/01 12:51:20;;;;;;;2.30;2.10;;;;;;;;;;5089463;28;20487;-65
2023/05/01 12:53:47;;;;;;;2.63;2.30;;;;;;;;;;5091481;28;20020;-69
2023/05/01 12:56:23;;;;;;;4.30;1.95;;;;;;;;;;5089035;28;20028;-68
2023/05/01 12:58:50;;;;;;;3.20;2.13;;;;;;;;;;5085679;28;20031;-65
2023/05/01 13:01:27;;;;;;;5.93;2.03;;;;;;;;;;5090316;28;20024;-68
2023/05/01 13:03:55;;;;;;;4.05;2.00;;;;;;;;;;5088630;28;20024;-68
2023/05/01 13:06:21;;;;;;;5.70;2.00;;;;;;;;;;5089791;28;20028;-65
2023/05/01 13:08:47;;;;;;;2.28;2.03;;;;;;;;;;5088401;28;20115;-64
2023/05/01 13:11:15;;;;;;;2.85;2.20;;;;;;;;;;5089863;28;20540;-65
2023/05/01 13:13:43;;;;;;;2.97;2.35;;;;;;;;;;5089766;28;20020;-69
2023/05/01 13:16:15;;;;;;;2.13;2.00;;;;;;;;;;5088595;28;20022;-66
2023/05/01 13:18:46;;;;;;;5.00;2.13;;;;;;;;;;5088628;28;20028;-66
2023/05/01 13:21:14;;;;;;;2.17;1.98;;;;;;;;;;5088645;28;20043;-68
2023/05/01 13:23:41;;;;;;;3.10;2.00;;;;;;;;;;5088641;28;20099;-66
2023/05/01 13:26:08;;;;;;;2.22;2.03;;;;;;;;;;5088052;28;20024;-65
2023/05/01 13:28:43;;;;;;;2.13;2.00;;;;;;;;;;5089425;28;20016;-65
2023/05/01 13:31:13;;;;;;;2.30;2.10;;;;;;;;;;5088555;28;20138;-68
2023/05/01 13:33:42;;;;;;;2.72;2.10;;;;;;;;;;5088453;28;20016;-68
2023/05/01 13:36:15;;;;;;;4.07;2.38;;;;;;;;;;5087536;28;20044;-64
2023/05/01 13:38:44;;;;;;;2.67;2.00;;;;;;;;;;5088978;28;20050;-66
2023/05/01 13:41:20;;;;;;;2.40;2.00;;;;;;;;;;5088646;28;20020;-67
2023/05/01 13:43:46;;;;;;;2.45;2.25;;;;;;;;;;5089171;28;20062;-64
2023/05/01 13:46:14;;;;;;;2.13;1.92;;;;;;;;;;5089583;28;20032;-64
2023/05/01 13:48:40;;;;;;;2.10;2.00;;;;;;;;;;5089067;28;20032;-67
2023/05/01 13:51:10;;;;;;;3.58;2.20;;;;;;;;;;5089466;28;20020;-66
2023/05/01 13:53:40;;;;;;;2.05;1.90;;;;;;;;;;5089451;28;20028;-66
2023/05/01 13:56:12;;;;;;;2.00;1.90;;;;;;;;;;5088855;28;20039;-67
2023/05/01 13:58:38;;;;;;;1.90;1.80;;;;;;;;;;5084534;28;20036;-65
2023/05/01 14:01:12;;;;;;;2.85;1.98;;;;;;;;;;5090251;28;20293;-64
2023/05/01 14:03:40;;;;;;;1.77;1.67;;;;;;;;;;5090762;28;20067;-65
2023/05/01 14:06:16;;;;;;;3.15;1.98;;;;;;;;;;5093920;28;20050;-67
2023/05/01 14:08:43;;;;;;;3.47;2.00;;;;;;;;;;5093047;28;20032;-65
2023/05/01 14:11:10;;;;;;;1.92;1.83;;;;;;;;;;5093495;28;20103;-65
2023/05/01 14:13:40;;;;;;;2.10;1.90;;;;;;;;;;5093789;28;20056;-64
2023/05/01 14:16:10;;;;;;;2.42;2.10;;;;;;;;;;5093709;28;20027;-67
2023/05/01 14:18:43;;;;;;;2.15;1.95;;;;;;;;;;5092146;28;20039;-69
2023/05/01 14:21:10;;;;;;;2.33;1.83;;;;;;;;;;5085871;28;20028;-65
2023/05/01 14:23:35;;;;;;;2.35;1.90;;;;;;;;;;5083676;28;20483;-68
2023/05/01 14:26:02;;;;;;;2.13;1.70;;;;;;;;;;5093489;28;20035;-68
2023/05/01 14:28:29;;;;;;;1.80;1.70;;;;;;;;;;5092566;28;20555;-65
2023/05/01 14:30:54;;;;;;;2.33;2.20;;;;;;;;;;5090576;28;20032;-65
2023/05/01 14:33:20;;;;;;;1.80;1.70;;;;;;;;;;5093489;28;20430;-64
2023/05/01 14:35:51;;;;;;;2.22;2.03;;;;;;;;;;5093162;28;20024;-68
2023/05/01 14:38:18;;;;;;;2.05;1.92;;;;;;;;;;5093335;28;20032;-64
2023/05/01 14:40:44;;;;;;;1.60;1.50;;;;;;;;;;5093024;28;20024;-68
2023/05/01 14:43:13;;;;;;;3.38;1.92;;;;;;;;;;5093654;28;20032;-67
2023/05/01 14:45:44;;;;;;;2.88;2.08;;;;;;;;;;5093128;28;20031;-65
2023/05/01 14:48:20;;;;;;;2.20;2.00;;;;;;;;;;5093048;28;20578;-67
2023/05/01 14:50:46;;;;;;;2.30;2.10;;;;;;;;;;5092887;28;20032;-65